• Join FlightAware (Why Join?)
  • Login
  • US Flag 
Rudolph Flight #1: Arrived! 
09:43AM EST


 

Airport Tracker/Info


-or-


 

Live Flight TrackerFlight Track Log ✈ N770NC ✈ 18-Jun-2013 ✈ KAGS - KATL

Flight Track Log - Related Links

Times and Time Zones

All times are in EDT time to prevent confusion due to time zone crossing. See the N770NC flight status page for this flight to view local times or setup timezone preferences in your user account.

Time Position Orientation Groundspeed Altitude Reporting Facility
EDT Latitude Longitude Course Direction KTS MPH feet Rate Location/Type
07:40AM 33.3017 -82.0133 239° Southwest 209 241 3,000  Level Atlanta Center
07:41AM 33.3092 -82.0925 276° West 218 251 5,100 2,280 Climbing Atlanta Center
07:42AM 33.6275 -82.1138 337° Northwest  Level FlightAware Approximate
07:42AM 33.3106 -82.1794 271° West 244 281 7,600  Level Atlanta Center
07:43AM 33.6958 -82.1479 337° Northwest  Level FlightAware Approximate
07:43AM 33.3181 -82.2664 276° West 256 295 10,000  Level Atlanta Center
07:44AM 33.6707 -82.2252 239° Southwest  Level FlightAware Approximate
07:44AM 33.3297 -82.3556 279° West 267 307 11,400  Level Atlanta Center
07:45AM 33.6327 -82.3013 239° Southwest  Level FlightAware Approximate
07:45AM 33.3311 -82.4650 271° West 294 338 12,200  Level Atlanta Center
07:46AM 33.3347 -82.5694 272° West 320 368 14,100 1,680 Climbing Atlanta Center
07:47AM 33.3400 -82.6836 273° West 347 399 15,600 1,860 Climbing Atlanta Center
07:48AM 33.3247 -82.7983 261° West 352 405 17,900 1,860 Climbing Atlanta Center
07:49AM 33.3069 -82.9078 259° West 352 405 19,400 1,440 Climbing Atlanta Center
07:50AM 33.2767 -83.0350 254° West 359 413 20,800 1,140 Climbing Atlanta Center
07:51AM 33.2464 -83.1619 254° West 377 434 21,700 -180 Climbing Atlanta Center
07:52AM 33.2117 -83.2939 253° West 403 464 20,500 -1,320 Descending Atlanta Center
07:53AM 33.1811 -83.4183 254° West 410 472 19,100 -1,260 Descending Atlanta Center
07:54AM 33.1419 -83.5353 248° West 388 447 18,000 -1,380 Descending Atlanta Center
07:55AM 33.1047 -83.6419 247° West 366 421 16,400 -1,740 Descending Atlanta Center
07:56AM 33.1656 -83.7361 308° West 325 374 14,600 -1,860 Descending Atlanta Center
07:57AM 33.2167 -83.7833 322° Northwest 389 448 13,600 -1,860 Descending Atlanta TRACON
07:58AM 33.2667 -83.8667 306° West 332 382 11,800 -1,800 Descending Atlanta TRACON
07:59AM 33.3167 -83.9500 306° West 281 323 10,000 -2,160 Descending Atlanta TRACON
08:00AM 33.3667 -84.0333 306° West 281 323 7,500 -2,160 Descending Atlanta TRACON
08:01AM 33.4167 -84.1000 312° West 267 307 5,700 -1,440 Descending Atlanta TRACON
08:02AM 33.4833 -84.0833 12° North 306 352 4,600 -1,200 Descending Atlanta TRACON
08:03AM 33.5667 -84.0833 360° North 257 296 3,300 -840 Descending Atlanta TRACON
08:04AM 33.6167 -84.1000 344° North 186 214 3,000 -240 Descending Atlanta TRACON
08:05AM 33.6167 -84.1500 270° West 156 180 2,900  Descending Atlanta TRACON
08:06AM 33.6167 -84.2000 270° West 149 171 3,000  Climbing Atlanta TRACON
08:07AM 33.6167 -84.2500 270° West 152 175 3,000 -120 Level Atlanta TRACON
08:08AM 33.6167 -84.3000 270° West 149 171 2,800 -420 Descending Atlanta TRACON
08:09AM 33.6167 -84.3500 270° West 125 144 2,200 -720 Descending Atlanta TRACON
08:09AM 33.6167 -84.3833 270° West 139 160 1,500 -780 Descending Atlanta TRACON